sensor_id;sensor_type;location;lat;lon;timestamp;pressure;altitude;pressure_sealevel;temperature;humidity
33191;BME280;19554;42.652;23.364;2023-06-14T00:01:00;94331.81;;;19.08;79.94
33191;BME280;19554;42.652;23.364;2023-06-14T00:03:28;94339.84;;;19.05;80.11
33191;BME280;19554;42.652;23.364;2023-06-14T00:05:54;94334.94;;;19.10;80.08
33191;BME280;19554;42.652;23.364;2023-06-14T00:08:20;94288.34;;;18.85;79.65
33191;BME280;19554;42.652;23.364;2023-06-14T00:10:48;94318.38;;;19.12;79.47
33191;BME280;19554;42.652;23.364;2023-06-14T00:13:13;94316.63;;;19.20;79.31
33191;BME280;19554;42.652;23.364;2023-06-14T00:15:39;94327.91;;;19.22;79.39
33191;BME280;19554;42.652;23.364;2023-06-14T00:18:05;94296.66;;;19.08;79.52
33191;BME280;19554;42.652;23.364;2023-06-14T00:20:32;94323.69;;;19.08;79.68
33191;BME280;19554;42.652;23.364;2023-06-14T00:23:01;94301.78;;;18.98;79.67
33191;BME280;19554;42.652;23.364;2023-06-14T00:25:27;94285.66;;;19.01;79.63
33191;BME280;19554;42.652;23.364;2023-06-14T00:27:53;94313.66;;;19.25;79.26
33191;BME280;19554;42.652;23.364;2023-06-14T00:30:19;94317.25;;;19.29;78.54
33191;BME280;19554;42.652;23.364;2023-06-14T00:32:45;94303.09;;;19.20;78.59
33191;BME280;19554;42.652;23.364;2023-06-14T00:35:12;94310.00;;;19.17;78.92
33191;BME280;19554;42.652;23.364;2023-06-14T00:37:37;94291.75;;;18.98;79.73
33191;BME280;19554;42.652;23.364;2023-06-14T00:40:04;94308.41;;;19.00;80.14
33191;BME280;19554;42.652;23.364;2023-06-14T00:42:30;94310.06;;;18.89;80.63
33191;BME280;19554;42.652;23.364;2023-06-14T00:44:56;94302.13;;;18.96;81.00
33191;BME280;19554;42.652;23.364;2023-06-14T00:47:22;94304.41;;;19.10;80.42
33191;BME280;19554;42.652;23.364;2023-06-14T00:49:48;94299.94;;;19.17;79.89
33191;BME280;19554;42.652;23.364;2023-06-14T00:52:15;94297.00;;;19.23;79.37
33191;BME280;19554;42.652;23.364;2023-06-14T00:54:41;94250.13;;;19.03;78.93
33191;BME280;19554;42.652;23.364;2023-06-14T00:57:08;94298.41;;;19.32;78.71
33191;BME280;19554;42.652;23.364;2023-06-14T00:59:39;94288.78;;;19.35;78.75
33191;BME280;19554;42.652;23.364;2023-06-14T01:02:07;94286.50;;;19.37;78.75
33191;BME280;19554;42.652;23.364;2023-06-14T01:04:32;94291.06;;;19.33;78.64
33191;BME280;19554;42.652;23.364;2023-06-14T01:09:52;94296.19;;;19.38;78.82
33191;BME280;19554;42.652;23.364;2023-06-14T01:12:31;94298.91;;;19.38;78.63
33191;BME280;19554;42.652;23.364;2023-06-14T01:15:02;94264.28;;;19.12;79.05
33191;BME280;19554;42.652;23.364;2023-06-14T01:17:29;94266.91;;;19.08;78.77
33191;BME280;19554;42.652;23.364;2023-06-14T01:19:59;94272.91;;;18.86;79.20
33191;BME280;19554;42.652;23.364;2023-06-14T01:22:26;94299.78;;;18.94;79.48
33191;BME280;19554;42.652;23.364;2023-06-14T01:24:52;94260.91;;;18.71;80.03
33191;BME280;19554;42.652;23.364;2023-06-14T01:27:22;94294.00;;;18.96;79.66
33191;BME280;19554;42.652;23.364;2023-06-14T01:29:51;94268.69;;;18.73;79.83
33191;BME280;19554;42.652;23.364;2023-06-14T01:32:17;94298.38;;;18.85;79.75
33191;BME280;19554;42.652;23.364;2023-06-14T01:34:43;94300.38;;;18.88;80.09
33191;BME280;19554;42.652;23.364;2023-06-14T01:37:10;94295.41;;;18.90;80.79
33191;BME280;19554;42.652;23.364;2023-06-14T01:39:37;94299.25;;;18.89;80.21
33191;BME280;19554;42.652;23.364;2023-06-14T01:42:03;94296.69;;;18.80;80.75
33191;BME280;19554;42.652;23.364;2023-06-14T01:44:30;94299.66;;;18.75;80.57
33191;BME280;19554;42.652;23.364;2023-06-14T01:46:56;94268.97;;;18.55;80.31
33191;BME280;19554;42.652;23.364;2023-06-14T01:49:22;94265.66;;;18.46;80.83
33191;BME280;19554;42.652;23.364;2023-06-14T01:51:48;94288.69;;;18.56;80.50
33191;BME280;19554;42.652;23.364;2023-06-14T01:54:13;94271.53;;;18.36;81.24
33191;BME280;19554;42.652;23.364;2023-06-14T01:56:39;94292.97;;;18.29;82.68
33191;BME280;19554;42.652;23.364;2023-06-14T01:59:04;94281.19;;;18.21;83.53
33191;BME280;19554;42.652;23.364;2023-06-14T02:01:29;94298.88;;;18.46;83.77
33191;BME280;19554;42.652;23.364;2023-06-14T02:03:55;94204.09;;;17.95;82.88
33191;BME280;19554;42.652;23.364;2023-06-14T02:06:21;94308.69;;;18.67;82.32
33191;BME280;19554;42.652;23.364;2023-06-14T02:08:46;94295.78;;;18.60;82.74
33191;BME280;19554;42.652;23.364;2023-06-14T02:11:12;94234.34;;;18.29;82.34
33191;BME280;19554;42.652;23.364;2023-06-14T02:13:37;94312.50;;;18.78;82.46
33191;BME280;19554;42.652;23.364;2023-06-14T02:16:02;94315.84;;;18.87;81.91
33191;BME280;19554;42.652;23.364;2023-06-14T02:18:29;94274.75;;;18.69;81.63
33191;BME280;19554;42.652;23.364;2023-06-14T02:20:55;94308.50;;;18.88;81.20
33191;BME280;19554;42.652;23.364;2023-06-14T02:23:20;94315.91;;;18.91;81.36
33191;BME280;19554;42.652;23.364;2023-06-14T02:25:46;94322.03;;;18.88;81.63
33191;BME280;19554;42.652;23.364;2023-06-14T02:28:11;94322.44;;;18.90;81.65
33191;BME280;19554;42.652;23.364;2023-06-14T02:30:37;94275.34;;;18.63;81.54
33191;BME280;19554;42.652;23.364;2023-06-14T02:33:02;94308.31;;;18.81;81.28
33191;BME280;19554;42.652;23.364;2023-06-14T02:35:28;94267.44;;;18.54;81.25
33191;BME280;19554;42.652;23.364;2023-06-14T02:37:53;94315.63;;;18.80;80.67
33191;BME280;19554;42.652;23.364;2023-06-14T02:40:19;94311.72;;;18.65;81.16
33191;BME280;19554;42.652;23.364;2023-06-14T02:42:45;94327.25;;;18.68;81.51
33191;BME280;19554;42.652;23.364;2023-06-14T02:45:10;94306.53;;;18.44;81.94
33191;BME280;19554;42.652;23.364;2023-06-14T02:47:36;94324.41;;;18.49;82.96
33191;BME280;19554;42.652;23.364;2023-06-14T02:50:01;94320.41;;;18.43;83.21
33191;BME280;19554;42.652;23.364;2023-06-14T02:52:28;94330.22;;;18.35;83.22
33191;BME280;19554;42.652;23.364;2023-06-14T02:54:53;94314.09;;;18.11;83.61
33191;BME280;19554;42.652;23.364;2023-06-14T02:57:20;94330.78;;;18.29;84.16
33191;BME280;19554;42.652;23.364;2023-06-14T02:59:45;94330.78;;;18.29;83.52
33191;BME280;19554;42.652;23.364;2023-06-14T03:02:10;94297.78;;;18.07;82.95
33191;BME280;19554;42.652;23.364;2023-06-14T03:04:36;94321.47;;;18.26;82.95
33191;BME280;19554;42.652;23.364;2023-06-14T03:07:03;94248.13;;;17.71;82.51
33191;BME280;19554;42.652;23.364;2023-06-14T03:09:35;94276.91;;;17.80;83.27
33191;BME280;19554;42.652;23.364;2023-06-14T03:12:02;94327.75;;;18.02;83.99
33191;BME280;19554;42.652;23.364;2023-06-14T03:14:28;94329.31;;;18.03;83.47
33191;BME280;19554;42.652;23.364;2023-06-14T03:16:55;94348.00;;;17.96;83.69
33191;BME280;19554;42.652;23.364;2023-06-14T03:19:22;94335.16;;;17.93;84.28
33191;BME280;19554;42.652;23.364;2023-06-14T03:21:48;94341.91;;;17.99;84.79
33191;BME280;19554;42.652;23.364;2023-06-14T03:24:14;94352.50;;;17.80;85.44
33191;BME280;19554;42.652;23.364;2023-06-14T03:26:41;94346.19;;;17.75;86.55
33191;BME280;19554;42.652;23.364;2023-06-14T03:29:07;94342.28;;;17.85;86.32
33191;BME280;19554;42.652;23.364;2023-06-14T03:31:34;94341.47;;;17.72;86.84
33191;BME280;19554;42.652;23.364;2023-06-14T03:34:00;94312.34;;;17.53;86.84
33191;BME280;19554;42.652;23.364;2023-06-14T03:36:26;94254.25;;;17.44;86.04
33191;BME280;19554;42.652;23.364;2023-06-14T03:38:51;94347.53;;;17.94;84.75
33191;BME280;19554;42.652;23.364;2023-06-14T03:41:16;94352.47;;;18.04;84.97
33191;BME280;19554;42.652;23.364;2023-06-14T03:43:42;94345.91;;;18.17;84.16
33191;BME280;19554;42.652;23.364;2023-06-14T03:46:07;94349.19;;;18.23;83.36
33191;BME280;19554;42.652;23.364;2023-06-14T03:48:33;94323.03;;;17.87;83.95
33191;BME280;19554;42.652;23.364;2023-06-14T03:50:58;94354.97;;;17.97;84.49
33191;BME280;19554;42.652;23.364;2023-06-14T03:53:23;94347.84;;;18.05;84.31
33191;BME280;19554;42.652;23.364;2023-06-14T03:55:49;94350.03;;;17.99;84.17
33191;BME280;19554;42.652;23.364;2023-06-14T03:58:17;94344.88;;;17.82;85.13
33191;BME280;19554;42.652;23.364;2023-06-14T04:00:42;94358.69;;;17.92;85.18
33191;BME280;19554;42.652;23.364;2023-06-14T04:03:08;94362.59;;;18.07;84.25
33191;BME280;19554;42.652;23.364;2023-06-14T04:05:33;94341.81;;;17.83;84.06
33191;BME280;19554;42.652;23.364;2023-06-14T04:07:59;94347.97;;;18.08;83.95
33191;BME280;19554;42.652;23.364;2023-06-14T04:10:25;94359.09;;;18.19;83.13
33191;BME280;19554;42.652;23.364;2023-06-14T04:12:51;94348.19;;;18.15;83.18
33191;BME280;19554;42.652;23.364;2023-06-14T04:15:17;94359.59;;;18.37;82.82
33191;BME280;19554;42.652;23.364;2023-06-14T04:17:42;94363.97;;;18.41;82.63
33191;BME280;19554;42.652;23.364;2023-06-14T04:20:08;94363.31;;;18.32;82.75
33191;BME280;19554;42.652;23.364;2023-06-14T04:22:35;94352.59;;;18.36;82.44
33191;BME280;19554;42.652;23.364;2023-06-14T04:25:01;94357.34;;;18.39;81.71
33191;BME280;19554;42.652;23.364;2023-06-14T04:27:27;94293.56;;;17.82;82.72
33191;BME280;19554;42.652;23.364;2023-06-14T04:29:53;94362.34;;;18.24;82.78
33191;BME280;19554;42.652;23.364;2023-06-14T04:32:24;94360.09;;;18.27;83.79
33191;BME280;19554;42.652;23.364;2023-06-14T04:34:50;94309.66;;;18.18;82.63
33191;BME280;19554;42.652;23.364;2023-06-14T04:37:19;94362.88;;;18.70;81.56
33191;BME280;19554;42.652;23.364;2023-06-14T04:39:46;94354.03;;;18.86;80.71
33191;BME280;19554;42.652;23.364;2023-06-14T04:42:12;94353.19;;;18.98;80.12
33191;BME280;19554;42.652;23.364;2023-06-14T04:44:41;94361.56;;;19.08;79.15
33191;BME280;19554;42.652;23.364;2023-06-14T04:47:06;94364.19;;;19.21;78.57
33191;BME280;19554;42.652;23.364;2023-06-14T04:49:32;94290.94;;;18.82;77.92
33191;BME280;19554;42.652;23.364;2023-06-14T04:51:59;94348.81;;;19.25;77.54
33191;BME280;19554;42.652;23.364;2023-06-14T04:54:26;94372.75;;;19.23;76.99
33191;BME280;19554;42.652;23.364;2023-06-14T04:56:52;94374.31;;;19.08;76.78
33191;BME280;19554;42.652;23.364;2023-06-14T04:59:20;94321.03;;;18.52;78.33
33191;BME280;19554;42.652;23.364;2023-06-14T05:01:48;94376.84;;;18.73;78.74
33191;BME280;19554;42.652;23.364;2023-06-14T05:04:17;94375.38;;;18.75;79.91
33191;BME280;19554;42.652;23.364;2023-06-14T05:06:43;94388.78;;;19.00;78.41
33191;BME280;19554;42.652;23.364;2023-06-14T05:09:10;94382.16;;;19.13;77.66
33191;BME280;19554;42.652;23.364;2023-06-14T05:11:36;94379.56;;;19.16;77.62
33191;BME280;19554;42.652;23.364;2023-06-14T05:14:01;94380.16;;;18.94;77.38
33191;BME280;19554;42.652;23.364;2023-06-14T05:16:27;94383.34;;;18.84;77.53
33191;BME280;19554;42.652;23.364;2023-06-14T05:18:53;94372.09;;;18.69;78.21
33191;BME280;19554;42.652;23.364;2023-06-14T05:21:19;94394.41;;;18.79;78.34
33191;BME280;19554;42.652;23.364;2023-06-14T05:23:45;94390.34;;;18.73;79.38
33191;BME280;19554;42.652;23.364;2023-06-14T05:26:10;94394.41;;;18.79;78.59
33191;BME280;19554;42.652;23.364;2023-06-14T05:28:36;94395.97;;;18.80;79.00
33191;BME280;19554;42.652;23.364;2023-06-14T05:31:02;94397.75;;;18.88;78.55
33191;BME280;19554;42.652;23.364;2023-06-14T05:33:27;94389.63;;;18.88;78.14
33191;BME280;19554;42.652;23.364;2023-06-14T05:35:52;94408.41;;;18.97;78.75
33191;BME280;19554;42.652;23.364;2023-06-14T05:38:18;94397.97;;;18.83;79.16
33191;BME280;19554;42.652;23.364;2023-06-14T05:40:43;94395.41;;;19.02;78.10
33191;BME280;19554;42.652;23.364;2023-06-14T05:43:08;94394.13;;;19.12;77.37
33191;BME280;19554;42.652;23.364;2023-06-14T05:45:34;94400.66;;;19.11;77.88
33191;BME280;19554;42.652;23.364;2023-06-14T05:47:59;94398.84;;;19.15;77.26
33191;BME280;19554;42.652;23.364;2023-06-14T05:50:25;94408.66;;;19.35;77.49
33191;BME280;19554;42.652;23.364;2023-06-14T05:52:50;94405.53;;;19.65;76.27
33191;BME280;19554;42.652;23.364;2023-06-14T05:55:17;94401.91;;;20.08;74.18
33191;BME280;19554;42.652;23.364;2023-06-14T05:57:42;94402.34;;;20.46;72.36
33191;BME280;19554;42.652;23.364;2023-06-14T06:00:08;94403.44;;;20.61;70.42
33191;BME280;19554;42.652;23.364;2023-06-14T06:02:37;94386.34;;;20.56;69.65
33191;BME280;19554;42.652;23.364;2023-06-14T06:05:02;94405.31;;;20.56;69.39
33191;BME280;19554;42.652;23.364;2023-06-14T06:07:28;94408.31;;;20.51;69.46
33191;BME280;19554;42.652;23.364;2023-06-14T06:09:53;94405.53;;;20.32;70.75
33191;BME280;19554;42.652;23.364;2023-06-14T06:12:18;94413.06;;;20.23;71.41
33191;BME280;19554;42.652;23.364;2023-06-14T06:14:44;94412.84;;;20.12;71.48
33191;BME280;19554;42.652;23.364;2023-06-14T06:17:09;94420.59;;;20.13;71.90
33191;BME280;19554;42.652;23.364;2023-06-14T06:19:35;94412.84;;;19.96;71.97
33191;BME280;19554;42.652;23.364;2023-06-14T06:22:00;94416.09;;;19.86;72.37
33191;BME280;19554;42.652;23.364;2023-06-14T06:24:26;94419.94;;;19.85;72.40
33191;BME280;19554;42.652;23.364;2023-06-14T06:26:51;94424.66;;;19.88;72.59
33191;BME280;19554;42.652;23.364;2023-06-14T06:29:16;94426.50;;;19.84;73.38
33191;BME280;19554;42.652;23.364;2023-06-14T06:31:42;94428.28;;;19.76;72.84
33191;BME280;19554;42.652;23.364;2023-06-14T06:34:07;94432.19;;;19.79;72.17
33191;BME280;19554;42.652;23.364;2023-06-14T06:36:32;94431.31;;;19.75;72.88
33191;BME280;19554;42.652;23.364;2023-06-14T06:38:58;94427.19;;;19.65;73.12
33191;BME280;19554;42.652;23.364;2023-06-14T06:41:23;94429.38;;;19.59;74.10
33191;BME280;19554;42.652;23.364;2023-06-14T06:43:49;94429.97;;;19.53;74.51
33191;BME280;19554;42.652;23.364;2023-06-14T06:46:14;94441.41;;;19.46;74.98
33191;BME280;19554;42.652;23.364;2023-06-14T06:48:40;94390.38;;;19.16;75.26
33191;BME280;19554;42.652;23.364;2023-06-14T06:51:05;94441.75;;;19.45;74.58
33191;BME280;19554;42.652;23.364;2023-06-14T06:53:30;94421.66;;;19.30;74.21
33191;BME280;19554;42.652;23.364;2023-06-14T06:55:56;94441.81;;;19.48;74.06
33191;BME280;19554;42.652;23.364;2023-06-14T06:58:21;94437.38;;;19.40;74.94
33191;BME280;19554;42.652;23.364;2023-06-14T07:00:47;94368.19;;;18.95;74.72
33191;BME280;19554;42.652;23.364;2023-06-14T07:03:12;94380.75;;;19.03;74.69
33191;BME280;19554;42.652;23.364;2023-06-14T07:05:38;94434.66;;;19.40;75.49
33191;BME280;19554;42.652;23.364;2023-06-14T07:08:03;94434.22;;;19.38;75.00
33191;BME280;19554;42.652;23.364;2023-06-14T07:10:29;94445.13;;;19.41;74.20
33191;BME280;19554;42.652;23.364;2023-06-14T07:12:54;94433.00;;;19.51;74.37
33191;BME280;19554;42.652;23.364;2023-06-14T07:15:20;94435.84;;;19.71;73.83
33191;BME280;19554;42.652;23.364;2023-06-14T07:17:45;94429.47;;;19.95;72.69
33191;BME280;19554;42.652;23.364;2023-06-14T07:20:11;94394.44;;;19.86;72.64
33191;BME280;19554;42.652;23.364;2023-06-14T07:22:40;94420.16;;;20.63;72.31
33191;BME280;19554;42.652;23.364;2023-06-14T07:25:09;94345.38;;;20.62;68.63
33191;BME280;19554;42.652;23.364;2023-06-14T07:27:35;94425.00;;;21.31;66.52
33191;BME280;19554;42.652;23.364;2023-06-14T07:30:00;94410.56;;;21.27;66.38
33191;BME280;19554;42.652;23.364;2023-06-14T07:32:26;94388.53;;;21.32;66.21
33191;BME280;19554;42.652;23.364;2023-06-14T07:34:51;94420.75;;;21.76;65.82
33191;BME280;19554;42.652;23.364;2023-06-14T07:37:16;94428.41;;;21.93;64.83
33191;BME280;19554;42.652;23.364;2023-06-14T07:39:42;94360.88;;;21.69;64.76
33191;BME280;19554;42.652;23.364;2023-06-14T07:42:07;94398.19;;;21.72;64.20
33191;BME280;19554;42.652;23.364;2023-06-14T07:44:33;94419.69;;;21.58;65.34
33191;BME280;19554;42.652;23.364;2023-06-14T07:46:58;94383.44;;;21.27;64.62
33191;BME280;19554;42.652;23.364;2023-06-14T07:49:25;94421.78;;;21.45;65.02
33191;BME280;19554;42.652;23.364;2023-06-14T07:51:50;94413.13;;;21.39;65.58
33191;BME280;19554;42.652;23.364;2023-06-14T07:54:16;94432.97;;;21.43;65.76
33191;BME280;19554;42.652;23.364;2023-06-14T07:56:41;94437.50;;;21.36;64.45
33191;BME280;19554;42.652;23.364;2023-06-14T07:59:07;94442.50;;;21.34;64.38
33191;BME280;19554;42.652;23.364;2023-06-14T08:01:33;94402.31;;;21.00;65.09
33191;BME280;19554;42.652;23.364;2023-06-14T08:03:58;94426.09;;;21.07;65.60
33191;BME280;19554;42.652;23.364;2023-06-14T08:06:24;94444.91;;;21.19;65.47
33191;BME280;19554;42.652;23.364;2023-06-14T08:08:50;94441.81;;;21.17;66.16
33191;BME280;19554;42.652;23.364;2023-06-14T08:11:15;94454.28;;;21.22;66.89
33191;BME280;19554;42.652;23.364;2023-06-14T08:13:41;94409.88;;;21.11;66.72
33191;BME280;19554;42.652;23.364;2023-06-14T08:16:06;94457.72;;;21.58;65.73
33191;BME280;19554;42.652;23.364;2023-06-14T08:18:32;94453.53;;;21.64;64.26
33191;BME280;19554;42.652;23.364;2023-06-14T08:20:57;94460.75;;;21.56;64.27
33191;BME280;19554;42.652;23.364;2023-06-14T08:23:23;94453.00;;;21.55;64.32
33191;BME280;19554;42.652;23.364;2023-06-14T08:25:48;94463.97;;;21.62;64.97
33191;BME280;19554;42.652;23.364;2023-06-14T08:28:14;94411.94;;;21.17;64.58
33191;BME280;19554;42.652;23.364;2023-06-14T08:30:42;94452.00;;;21.43;65.04
33191;BME280;19554;42.652;23.364;2023-06-14T08:33:07;94466.00;;;21.45;65.53
33191;BME280;19554;42.652;23.364;2023-06-14T08:35:33;94459.06;;;21.48;64.91
33191;BME280;19554;42.652;23.364;2023-06-14T08:37:58;94455.28;;;21.52;64.97
33191;BME280;19554;42.652;23.364;2023-06-14T08:40:23;94454.56;;;21.56;64.06
33191;BME280;19554;42.652;23.364;2023-06-14T08:42:54;94456.25;;;21.64;63.81
33191;BME280;19554;42.652;23.364;2023-06-14T08:45:23;94449.59;;;21.84;63.52
33191;BME280;19554;42.652;23.364;2023-06-14T08:47:50;94445.88;;;21.92;63.21
33191;BME280;19554;42.652;23.364;2023-06-14T08:50:22;94429.88;;;21.64;62.58
33191;BME280;19554;42.652;23.364;2023-06-14T08:52:53;94442.00;;;21.70;62.68
33191;BME280;19554;42.652;23.364;2023-06-14T08:55:18;94439.78;;;21.76;63.06
33191;BME280;19554;42.652;23.364;2023-06-14T08:57:46;94446.16;;;21.87;62.97
33191;BME280;19554;42.652;23.364;2023-06-14T09:00:12;94444.28;;;21.91;62.04
33191;BME280;19554;42.652;23.364;2023-06-14T09:02:39;94445.16;;;21.95;60.89
33191;BME280;19554;42.652;23.364;2023-06-14T09:05:08;94411.44;;;21.77;60.59
33191;BME280;19554;42.652;23.364;2023-06-14T09:07:34;94448.59;;;21.92;61.10
33191;BME280;19554;42.652;23.364;2023-06-14T09:10:10;94436.56;;;21.93;60.38
33191;BME280;19554;42.652;23.364;2023-06-14T09:12:36;94308.25;;;21.31;60.18
33191;BME280;19554;42.652;23.364;2023-06-14T09:15:02;94361.88;;;21.84;59.89
33191;BME280;19554;42.652;23.364;2023-06-14T09:17:40;94423.19;;;22.08;59.71
33191;BME280;19554;42.652;23.364;2023-06-14T09:20:08;94437.84;;;22.22;60.27
33191;BME280;19554;42.652;23.364;2023-06-14T09:22:38;94434.69;;;22.20;60.44
33191;BME280;19554;42.652;23.364;2023-06-14T09:25:04;94437.94;;;22.07;60.59
33191;BME280;19554;42.652;23.364;2023-06-14T09:27:30;94440.44;;;21.92;61.05
33191;BME280;19554;42.652;23.364;2023-06-14T09:29:56;94436.56;;;21.93;61.48
33191;BME280;19554;42.652;23.364;2023-06-14T09:32:22;94441.22;;;21.93;60.92
33191;BME280;19554;42.652;23.364;2023-06-14T09:34:48;94380.94;;;21.61;61.04
33191;BME280;19554;42.652;23.364;2023-06-14T09:37:26;94432.06;;;22.05;60.94
33191;BME280;19554;42.652;23.364;2023-06-14T09:39:52;94430.50;;;22.04;61.39
33191;BME280;19554;42.652;23.364;2023-06-14T09:42:18;94429.47;;;22.12;62.03
33191;BME280;19554;42.652;23.364;2023-06-14T09:44:47;94419.25;;;22.28;60.54
33191;BME280;19554;42.652;23.364;2023-06-14T09:47:17;94407.84;;;22.45;59.94
33191;BME280;19554;42.652;23.364;2023-06-14T09:49:43;94414.75;;;22.69;60.16
33191;BME280;19554;42.652;23.364;2023-06-14T09:52:15;94431.03;;;22.92;59.72
33191;BME280;19554;42.652;23.364;2023-06-14T09:54:42;94414.19;;;22.87;58.17
33191;BME280;19554;42.652;23.364;2023-06-14T09:57:10;94416.91;;;22.87;58.96
33191;BME280;19554;42.652;23.364;2023-06-14T09:59:41;94420.13;;;22.92;58.45
33191;BME280;19554;42.652;23.364;2023-06-14T10:02:11;94403.72;;;22.89;57.88
33191;BME280;19554;42.652;23.364;2023-06-14T10:04:40;94409.19;;;22.89;58.26
33191;BME280;19554;42.652;23.364;2023-06-14T10:07:11;94328.56;;;22.43;57.79
33191;BME280;19554;42.652;23.364;2023-06-14T10:09:37;94396.28;;;23.16;56.68
33191;BME280;19554;42.652;23.364;2023-06-14T10:12:05;94404.06;;;23.17;56.77
33191;BME280;19554;42.652;23.364;2023-06-14T10:14:31;94390.91;;;23.23;56.30
33191;BME280;19554;42.652;23.364;2023-06-14T10:17:12;94397.25;;;23.34;56.25
33191;BME280;19554;42.652;23.364;2023-06-14T10:19:48;94390.69;;;23.02;55.82
33191;BME280;19554;42.652;23.364;2023-06-14T10:22:21;94380.63;;;23.06;56.16
33191;BME280;19554;42.652;23.364;2023-06-14T10:24:50;94383.78;;;23.08;56.83
33191;BME280;19554;42.652;23.364;2023-06-14T10:27:16;94387.75;;;23.17;56.76
33191;BME280;19554;42.652;23.364;2023-06-14T10:32:17;94387.22;;;23.05;55.70
33191;BME280;19554;42.652;23.364;2023-06-14T10:34:44;94386.06;;;23.06;56.59
33191;BME280;19554;42.652;23.364;2023-06-14T10:37:13;94335.97;;;22.80;56.98
33191;BME280;19554;42.652;23.364;2023-06-14T10:39:43;94324.13;;;22.62;56.33
33191;BME280;19554;42.652;23.364;2023-06-14T10:42:11;94375.88;;;22.99;55.48
33191;BME280;19554;42.652;23.364;2023-06-14T10:47:06;94383.88;;;23.18;55.44
33191;BME280;19554;42.652;23.364;2023-06-14T10:49:42;94378.59;;;23.36;55.30
33191;BME280;19554;42.652;23.364;2023-06-14T10:52:09;94374.13;;;23.58;54.46
33191;BME280;19554;42.652;23.364;2023-06-14T10:54:37;94361.78;;;23.68;54.19
33191;BME280;19554;42.652;23.364;2023-06-14T10:57:06;94342.84;;;23.41;54.81
33191;BME280;19554;42.652;23.364;2023-06-14T10:59:33;94344.50;;;23.50;54.15
33191;BME280;19554;42.652;23.364;2023-06-14T11:07:37;94350.31;;;23.96;53.38
33191;BME280;19554;42.652;23.364;2023-06-14T11:10:36;94350.06;;;24.16;53.90
33191;BME280;19554;42.652;23.364;2023-06-14T11:13:06;94327.09;;;24.20;52.20
33191;BME280;19554;42.652;23.364;2023-06-14T11:15:32;94305.56;;;24.01;51.89
33191;BME280;19554;42.652;23.364;2023-06-14T11:18:02;94288.66;;;23.77;51.75
33191;BME280;19554;42.652;23.364;2023-06-14T11:20:30;94341.06;;;24.08;52.42
33191;BME280;19554;42.652;23.364;2023-06-14T11:22:56;94343.38;;;24.06;53.15
33191;BME280;19554;42.652;23.364;2023-06-14T11:25:22;94328.53;;;24.00;52.41
33191;BME280;19554;42.652;23.364;2023-06-14T11:27:49;94338.00;;;24.20;52.32
33191;BME280;19554;42.652;23.364;2023-06-14T11:30:15;94336.09;;;24.24;52.42
33191;BME280;19554;42.652;23.364;2023-06-14T11:32:41;94334.97;;;24.36;51.72
33191;BME280;19554;42.652;23.364;2023-06-14T11:35:08;94339.34;;;24.48;50.64
33191;BME280;19554;42.652;23.364;2023-06-14T11:37:36;94332.38;;;24.61;49.04
33191;BME280;19554;42.652;23.364;2023-06-14T11:40:03;94333.59;;;24.74;49.86
33191;BME280;19554;42.652;23.364;2023-06-14T11:42:33;94326.59;;;24.77;50.32
33191;BME280;19554;42.652;23.364;2023-06-14T11:44:59;94325.84;;;24.91;49.83
33191;BME280;19554;42.652;23.364;2023-06-14T11:47:31;94322.72;;;24.85;49.37
33191;BME280;19554;42.652;23.364;2023-06-14T11:49:58;94310.22;;;24.80;49.77
33191;BME280;19554;42.652;23.364;2023-06-14T11:52:24;94321.47;;;24.61;49.29
33191;BME280;19554;42.652;23.364;2023-06-14T11:54:49;94326.47;;;24.41;50.08
33191;BME280;19554;42.652;23.364;2023-06-14T11:57:17;94227.03;;;23.62;51.04
33191;BME280;19554;42.652;23.364;2023-06-14T11:59:44;94311.44;;;24.10;51.45
33191;BME280;19554;42.652;23.364;2023-06-14T12:02:13;94308.38;;;24.15;50.90
33191;BME280;19554;42.652;23.364;2023-06-14T12:04:41;94292.84;;;24.26;51.36
33191;BME280;19554;42.652;23.364;2023-06-14T12:07:13;94292.88;;;24.33;50.39
33191;BME280;19554;42.652;23.364;2023-06-14T12:12:26;94250.88;;;24.49;49.45
33191;BME280;19554;42.652;23.364;2023-06-14T12:14:53;94292.19;;;24.47;50.53
33191;BME280;19554;42.652;23.364;2023-06-14T12:17:19;94286.69;;;24.40;49.59
33191;BME280;19554;42.652;23.364;2023-06-14T12:19:45;94290.56;;;24.35;49.48
33191;BME280;19554;42.652;23.364;2023-06-14T12:22:14;94290.50;;;24.21;50.36
33191;BME280;19554;42.652;23.364;2023-06-14T12:24:42;94286.59;;;24.22;51.28
33191;BME280;19554;42.652;23.364;2023-06-14T12:27:08;94282.69;;;24.23;50.83
33191;BME280;19554;42.652;23.364;2023-06-14T12:29:34;94283.44;;;24.20;51.00
33191;BME280;19554;42.652;23.364;2023-06-14T12:32:00;94219.34;;;23.75;51.06
33191;BME280;19554;42.652;23.364;2023-06-14T12:34:26;94280.31;;;24.11;50.85
33191;BME280;19554;42.652;23.364;2023-06-14T12:36:55;94273.28;;;24.10;51.17
33191;BME280;19554;42.652;23.364;2023-06-14T12:39:21;94272.50;;;24.13;51.56
33191;BME280;19554;42.652;23.364;2023-06-14T12:41:47;94270.16;;;24.08;52.48
33191;BME280;19554;42.652;23.364;2023-06-14T12:44:13;94277.16;;;24.09;52.93
33191;BME280;19554;42.652;23.364;2023-06-14T12:46:39;94263.94;;;24.11;52.36
33191;BME280;19554;42.652;23.364;2023-06-14T12:49:07;94265.53;;;24.19;52.04
33191;BME280;19554;42.652;23.364;2023-06-14T12:51:33;94255.78;;;24.18;51.80
33191;BME280;19554;42.652;23.364;2023-06-14T12:53:58;94253.41;;;24.13;52.10
33191;BME280;19554;42.652;23.364;2023-06-14T12:56:24;94252.66;;;24.16;52.10
33191;BME280;19554;42.652;23.364;2023-06-14T12:58:49;94272.50;;;24.09;52.44
33191;BME280;19554;42.652;23.364;2023-06-14T13:01:14;94264.66;;;24.01;50.64
33191;BME280;19554;42.652;23.364;2023-06-14T13:03:40;94266.63;;;24.04;51.47